createdAt,value
2022-07-30T00:00:01.025Z,18
2022-07-30T00:01:01.090Z,17
2022-07-30T00:02:01.026Z,16
2022-07-30T00:03:01.035Z,15
2022-07-30T00:04:01.054Z,17
2022-07-30T00:05:01.027Z,18
2022-07-30T00:06:01.070Z,19
2022-07-30T00:09:01.029Z,18
2022-07-30T00:10:01.029Z,19
2022-07-30T00:11:01.069Z,17
2022-07-30T00:12:01.029Z,19
2022-07-30T00:13:01.030Z,20
2022-07-30T00:14:01.032Z,22
2022-07-30T00:15:01.030Z,21
2022-07-30T00:16:01.064Z,22
2022-07-30T00:17:01.277Z,21
2022-07-30T00:18:01.036Z,20
2022-07-30T00:19:01.031Z,18
2022-07-30T00:20:01.031Z,20
2022-07-30T00:22:01.060Z,21
2022-07-30T00:24:01.727Z,18
2022-07-30T00:25:01.030Z,16
2022-07-30T00:27:01.441Z,15
2022-07-30T00:29:01.031Z,18
2022-07-30T00:30:01.032Z,20
2022-07-30T00:31:01.074Z,19
2022-07-30T00:33:01.056Z,18
2022-07-30T00:34:01.031Z,19
2022-07-30T00:35:01.031Z,18
2022-07-30T00:36:01.030Z,20
2022-07-30T00:37:01.326Z,19
2022-07-30T00:39:01.055Z,17
2022-07-30T00:40:01.030Z,18
2022-07-30T00:41:01.031Z,17
2022-07-30T00:44:01.057Z,18
2022-07-30T00:45:01.029Z,15
2022-07-30T00:47:01.210Z,16
2022-07-30T00:48:01.054Z,15
2022-07-30T00:50:01.028Z,17
2022-07-30T00:52:02.118Z,15
2022-07-30T00:53:01.058Z,16
2022-07-30T00:54:01.029Z,15
2022-07-30T00:55:01.028Z,16
2022-07-30T00:56:01.028Z,17
2022-07-30T00:57:01.236Z,18
2022-07-30T00:58:01.055Z,19
2022-07-30T00:59:01.027Z,20
2022-07-30T01:00:01.029Z,18
2022-07-30T01:01:01.103Z,19
2022-07-30T01:03:01.071Z,18
2022-07-30T01:04:01.031Z,19
2022-07-30T01:05:01.029Z,20
2022-07-30T01:06:01.030Z,19
2022-07-30T01:07:01.348Z,21
2022-07-30T01:08:01.061Z,19
2022-07-30T01:09:01.031Z,20
2022-07-30T01:10:01.032Z,21
2022-07-30T01:12:01.030Z,19
2022-07-30T01:13:01.072Z,21
2022-07-30T01:14:01.029Z,19
2022-07-30T01:15:01.030Z,17
2022-07-30T01:16:01.086Z,18
2022-07-30T01:18:01.086Z,17
2022-07-30T01:19:01.031Z,18
2022-07-30T01:20:01.030Z,20
2022-07-30T01:22:01.030Z,19
2022-07-30T01:23:01.058Z,20
2022-07-30T01:24:01.030Z,18
2022-07-30T01:27:01.446Z,17
2022-07-30T01:28:01.083Z,16
2022-07-30T01:30:01.031Z,15
2022-07-30T01:31:01.033Z,13
2022-07-30T01:32:01.059Z,15
2022-07-30T01:33:01.074Z,16
2022-07-30T01:34:01.032Z,17
2022-07-30T01:36:01.034Z,19
2022-07-30T01:37:01.270Z,17
2022-07-30T01:39:01.061Z,18
2022-07-30T01:40:01.035Z,17
2022-07-30T01:41:01.034Z,16
2022-07-30T01:42:01.034Z,17
2022-07-30T01:44:01.068Z,16
2022-07-30T01:45:01.037Z,17
2022-07-30T01:46:01.090Z,16
2022-07-30T01:47:01.434Z,15
2022-07-30T01:48:01.033Z,16
2022-07-30T01:49:01.307Z,17
2022-07-30T01:50:01.034Z,16
2022-07-30T01:52:01.035Z,18
2022-07-30T01:53:01.036Z,15
2022-07-30T01:54:01.036Z,13
2022-07-30T01:55:01.062Z,14
2022-07-30T01:56:01.036Z,17
2022-07-30T01:57:01.220Z,15
2022-07-30T01:58:01.035Z,16
2022-07-30T01:59:01.037Z,17
2022-07-30T02:00:01.078Z,18
2022-07-30T02:01:01.099Z,17
2022-07-30T02:02:01.042Z,18
2022-07-30T02:04:01.076Z,17
2022-07-30T02:05:01.078Z,16
2022-07-30T02:08:01.038Z,17
2022-07-30T02:09:01.038Z,18
2022-07-30T02:10:01.066Z,17
2022-07-30T02:11:01.041Z,18
2022-07-30T02:13:01.040Z,17
2022-07-30T02:15:01.085Z,17
2022-07-30T02:16:01.063Z,15
2022-07-30T02:19:01.044Z,16
2022-07-30T02:20:01.068Z,18
2022-07-30T02:22:01.041Z,17
2022-07-30T02:23:01.043Z,18
2022-07-30T02:24:01.041Z,17
2022-07-30T02:25:01.073Z,16
2022-07-30T02:26:01.042Z,17
2022-07-30T02:28:01.042Z,19
2022-07-30T02:29:01.044Z,20
2022-07-30T02:30:01.071Z,22
2022-07-30T02:32:01.047Z,23
2022-07-30T02:33:01.046Z,20
2022-07-30T02:34:01.046Z,19
2022-07-30T02:35:01.074Z,18
2022-07-30T02:36:01.046Z,17
2022-07-30T02:38:01.048Z,18
2022-07-30T02:39:01.047Z,17
2022-07-30T02:40:01.094Z,16
2022-07-30T02:41:01.047Z,17
2022-07-30T02:42:01.047Z,18
2022-07-30T02:43:01.047Z,19
2022-07-30T02:45:01.048Z,20
2022-07-30T02:46:01.080Z,19
2022-07-30T02:47:04.771Z,18
2022-07-30T02:48:01.047Z,16
2022-07-30T02:52:01.049Z,17
2022-07-30T02:53:01.049Z,18
2022-07-30T02:56:01.178Z,17
2022-07-30T02:57:01.330Z,15
2022-07-30T02:58:01.057Z,14
2022-07-30T02:59:01.051Z,15
2022-07-30T03:00:01.053Z,16
2022-07-30T03:01:01.095Z,15
2022-07-30T03:02:01.092Z,16
2022-07-30T03:04:01.053Z,15
2022-07-30T03:06:01.116Z,16
2022-07-30T03:08:01.050Z,18
2022-07-30T03:09:01.057Z,17
2022-07-30T03:10:01.053Z,16
2022-07-30T03:13:01.050Z,15
2022-07-30T03:14:01.055Z,16
2022-07-30T03:15:01.049Z,16
2022-07-30T03:16:01.151Z,15
2022-07-30T03:17:01.357Z,16
2022-07-30T03:18:01.063Z,20
2022-07-30T03:21:01.050Z,21
2022-07-30T03:22:01.056Z,20
2022-07-30T03:23:01.059Z,17
2022-07-30T03:24:01.052Z,18
2022-07-30T03:26:01.180Z,17
2022-07-30T03:27:01.408Z,18
2022-07-30T03:29:01.051Z,17
2022-07-30T03:30:01.051Z,16
2022-07-30T03:32:01.055Z,15
2022-07-30T03:33:01.051Z,14
2022-07-30T03:36:01.121Z,15
2022-07-30T03:38:01.054Z,16
2022-07-30T03:39:01.049Z,17
2022-07-30T03:40:01.051Z,16
2022-07-30T03:41:01.052Z,18
2022-07-30T03:42:01.051Z,19
2022-07-30T03:44:01.052Z,20
2022-07-30T03:45:01.052Z,21
2022-07-30T03:46:01.051Z,19
2022-07-30T03:47:01.304Z,18
2022-07-30T03:48:01.051Z,17
2022-07-30T03:49:01.084Z,16
2022-07-30T03:50:01.053Z,14
2022-07-30T03:52:01.052Z,15
2022-07-30T03:53:01.053Z,16
2022-07-30T03:55:01.054Z,18
2022-07-30T03:56:01.058Z,19
2022-07-30T03:57:01.425Z,20
2022-07-30T03:58:01.058Z,19
2022-07-30T04:00:01.055Z,17
2022-07-30T04:02:06.047Z,18
2022-07-30T04:05:01.055Z,19
2022-07-30T04:06:01.056Z,18
2022-07-30T04:07:01.431Z,17
2022-07-30T04:09:01.055Z,19
2022-07-30T04:11:01.058Z,18
2022-07-30T04:13:01.062Z,17
2022-07-30T04:14:01.059Z,15
2022-07-30T04:15:01.060Z,15
2022-07-30T04:17:01.318Z,14
2022-07-30T04:22:01.064Z,15
2022-07-30T04:24:01.689Z,16
2022-07-30T04:25:01.061Z,17
2022-07-30T04:27:01.469Z,16
2022-07-30T04:28:03.467Z,17
2022-07-30T04:29:01.127Z,19
2022-07-30T04:30:01.063Z,17
2022-07-30T04:31:01.087Z,18
2022-07-30T04:32:01.062Z,17
2022-07-30T04:34:04.508Z,15
2022-07-30T04:35:01.069Z,17
2022-07-30T04:36:01.061Z,18
2022-07-30T04:37:01.260Z,20
2022-07-30T04:39:01.060Z,21
2022-07-30T04:40:01.066Z,19
2022-07-30T04:41:01.061Z,18
2022-07-30T04:42:01.062Z,16
2022-07-30T04:44:01.063Z,15
2022-07-30T04:45:01.063Z,14
2022-07-30T04:46:01.092Z,16
2022-07-30T04:48:01.062Z,17
2022-07-30T04:49:01.072Z,19
2022-07-30T04:50:01.062Z,21
2022-07-30T04:51:01.066Z,20
2022-07-30T04:52:01.063Z,22
2022-07-30T04:59:01.126Z,21
2022-07-30T05:00:01.063Z,17
2022-07-30T05:01:01.060Z,18
2022-07-30T05:02:01.158Z,16
2022-07-30T05:03:01.064Z,18
2022-07-30T05:04:01.063Z,17
2022-07-30T05:05:01.107Z,19
2022-07-30T05:07:01.404Z,21
2022-07-30T05:08:01.062Z,20
2022-07-30T05:09:01.066Z,21
2022-07-30T05:10:01.063Z,20
2022-07-30T05:11:01.063Z,19
2022-07-30T05:12:01.105Z,16
2022-07-30T05:14:01.068Z,15
2022-07-30T05:15:01.065Z,17
2022-07-30T05:16:01.162Z,18
2022-07-30T05:17:01.282Z,19
2022-07-30T05:18:01.066Z,18
2022-07-30T05:20:01.065Z,19
2022-07-30T05:21:01.066Z,18
2022-07-30T05:22:04.799Z,16
2022-07-30T05:23:01.073Z,17
2022-07-30T05:24:01.069Z,16
2022-07-30T05:25:01.102Z,15
2022-07-30T05:26:01.066Z,16
2022-07-30T05:27:01.361Z,17
2022-07-30T05:28:01.069Z,16
2022-07-30T05:29:01.069Z,18
2022-07-30T05:30:01.071Z,18
2022-07-30T05:31:01.168Z,17
2022-07-30T05:33:01.319Z,18
2022-07-30T05:34:03.225Z,19
2022-07-30T05:35:01.077Z,21
2022-07-30T05:36:01.070Z,20
2022-07-30T05:37:01.290Z,21
2022-07-30T05:38:01.071Z,20
2022-07-30T05:39:01.072Z,19
2022-07-30T05:40:03.104Z,16
2022-07-30T05:43:01.072Z,17
2022-07-30T05:44:01.120Z,16
2022-07-30T05:45:01.071Z,17
2022-07-30T05:46:01.107Z,18
2022-07-30T05:47:01.391Z,20
2022-07-30T05:48:01.071Z,17
2022-07-30T05:49:01.138Z,16
2022-07-30T05:52:01.070Z,15
2022-07-30T05:53:01.072Z,18
2022-07-30T05:54:01.072Z,19
2022-07-30T05:56:01.201Z,18
2022-07-30T05:58:01.077Z,17
2022-07-30T05:59:01.074Z,18
2022-07-30T06:00:01.074Z,18
2022-07-30T06:01:01.072Z,17
2022-07-30T06:03:01.072Z,16
2022-07-30T06:05:01.153Z,15
2022-07-30T06:08:01.137Z,16
2022-07-30T06:09:01.139Z,17
2022-07-30T06:10:01.073Z,19
2022-07-30T06:13:01.143Z,20
2022-07-30T06:15:01.074Z,17
2022-07-30T06:16:01.298Z,18
2022-07-30T06:17:01.358Z,19
2022-07-30T06:18:02.124Z,17
2022-07-30T06:19:01.073Z,19
2022-07-30T06:20:01.072Z,20
2022-07-30T06:24:01.073Z,18
2022-07-30T06:25:01.073Z,19
2022-07-30T06:27:01.457Z,18
2022-07-30T06:29:01.073Z,17
2022-07-30T06:30:01.073Z,17
2022-07-30T06:31:01.124Z,18
2022-07-30T06:32:01.076Z,19
2022-07-30T06:33:01.073Z,17
2022-07-30T06:34:01.073Z,18
2022-07-30T06:35:04.466Z,19
2022-07-30T06:36:01.074Z,17
2022-07-30T06:37:01.356Z,18
2022-07-30T06:38:06.467Z,20
2022-07-30T06:40:01.072Z,19
2022-07-30T06:41:02.706Z,18
2022-07-30T06:42:01.074Z,16
2022-07-30T06:43:01.076Z,17
2022-07-30T06:44:01.075Z,16
2022-07-30T06:45:01.075Z,15
2022-07-30T06:46:01.194Z,16
2022-07-30T06:47:06.956Z,17
2022-07-30T06:48:01.101Z,18
2022-07-30T06:49:01.146Z,17
2022-07-30T06:54:01.092Z,18
2022-07-30T06:57:01.317Z,16
2022-07-30T06:58:01.074Z,15
2022-07-30T06:59:01.088Z,16
2022-07-30T07:00:01.072Z,16
2022-07-30T07:02:01.075Z,17
2022-07-30T07:03:01.071Z,16
2022-07-30T07:04:01.145Z,15
2022-07-30T07:05:01.072Z,16
2022-07-30T07:06:01.073Z,17
2022-07-30T07:07:01.407Z,18
2022-07-30T07:08:01.071Z,17
2022-07-30T07:09:01.085Z,18
2022-07-30T07:11:01.075Z,16
2022-07-30T07:13:01.076Z,17
2022-07-30T07:14:04.464Z,16
2022-07-30T07:15:01.087Z,18
2022-07-30T07:17:01.591Z,17
2022-07-30T07:18:02.299Z,16
2022-07-30T07:20:02.424Z,15
2022-07-30T07:21:01.077Z,17
2022-07-30T07:25:01.071Z,18
2022-07-30T07:26:01.074Z,17
2022-07-30T07:27:01.424Z,20
2022-07-30T07:28:11.513Z,19
2022-07-30T07:30:05.188Z,18
2022-07-30T07:32:02.862Z,16
2022-07-30T07:33:01.073Z,17
2022-07-30T07:34:01.074Z,15
2022-07-30T07:36:01.203Z,16
2022-07-30T07:37:01.319Z,17
2022-07-30T07:38:01.075Z,16
2022-07-30T07:39:01.075Z,18
2022-07-30T07:40:01.099Z,17
2022-07-30T07:41:01.116Z,18
2022-07-30T07:42:01.081Z,17
2022-07-30T07:43:01.075Z,18
2022-07-30T07:44:01.076Z,17
2022-07-30T07:45:01.078Z,18
2022-07-30T07:48:01.167Z,19
2022-07-30T07:49:01.154Z,20
2022-07-30T07:52:01.241Z,19
2022-07-30T07:53:01.080Z,17
2022-07-30T07:54:20.192Z,18
2022-07-30T07:56:01.104Z,17
2022-07-30T07:58:01.082Z,18
2022-07-30T07:59:01.083Z,17
2022-07-30T08:00:01.082Z,16
2022-07-30T08:04:01.155Z,17
2022-07-30T08:05:01.082Z,16
2022-07-30T08:08:01.235Z,17
2022-07-30T08:09:01.080Z,16
2022-07-30T08:10:01.081Z,18
2022-07-30T08:11:01.107Z,17
2022-07-30T08:13:01.158Z,18
2022-07-30T08:14:01.081Z,22
2022-07-30T08:15:01.082Z,22
2022-07-30T08:16:01.110Z,24
2022-07-30T08:17:01.468Z,23
2022-07-30T08:18:01.083Z,21
2022-07-30T08:19:01.088Z,18
2022-07-30T08:20:01.082Z,16
2022-07-30T08:21:01.111Z,17
2022-07-30T08:22:01.084Z,18
2022-07-30T08:23:01.087Z,20
2022-07-30T08:24:01.148Z,18
2022-07-30T08:25:01.085Z,20
2022-07-30T08:26:01.118Z,18
2022-07-30T08:27:01.346Z,19
2022-07-30T08:29:01.084Z,20
2022-07-30T08:30:01.085Z,17
2022-07-30T08:31:02.362Z,18
2022-07-30T08:32:01.260Z,15
2022-07-30T08:35:01.107Z,16
2022-07-30T08:36:02.920Z,15
2022-07-30T08:39:01.085Z,17
2022-07-30T08:40:01.085Z,16
2022-07-30T08:41:01.086Z,17
2022-07-30T08:42:01.250Z,19
2022-07-30T08:43:01.084Z,18
2022-07-30T08:45:01.085Z,18
2022-07-30T08:46:01.090Z,17
2022-07-30T08:48:01.115Z,16
2022-07-30T08:51:01.087Z,15
2022-07-30T08:52:01.366Z,14
2022-07-30T08:53:01.093Z,16
2022-07-30T08:54:01.088Z,17
2022-07-30T08:55:01.091Z,18
2022-07-30T08:57:01.215Z,20
2022-07-30T08:58:01.088Z,18
2022-07-30T08:59:01.096Z,16
2022-07-30T09:00:01.995Z,16
2022-07-30T09:01:01.155Z,17
2022-07-30T09:02:01.393Z,16
2022-07-30T09:03:01.152Z,17
2022-07-30T09:04:01.137Z,15
2022-07-30T09:05:01.086Z,16
2022-07-30T09:07:01.361Z,17
2022-07-30T09:08:01.872Z,16
2022-07-30T09:09:01.088Z,18
2022-07-30T09:10:01.152Z,17
2022-07-30T09:11:01.090Z,16
2022-07-30T09:12:01.113Z,15
2022-07-30T09:15:01.090Z,16
2022-07-30T09:16:01.087Z,18
2022-07-30T09:17:01.357Z,19
2022-07-30T09:22:01.256Z,18
2022-07-30T09:25:01.091Z,17
2022-07-30T09:26:01.096Z,19
2022-07-30T09:27:01.448Z,20
2022-07-30T09:29:01.090Z,18
2022-07-30T09:30:01.088Z,18
2022-07-30T09:31:01.093Z,16
2022-07-30T09:33:01.118Z,17
2022-07-30T09:34:01.091Z,19
2022-07-30T09:35:01.093Z,18
2022-07-30T09:37:01.159Z,17
2022-07-30T09:39:01.119Z,16
2022-07-30T09:40:01.094Z,17
2022-07-30T09:41:04.933Z,18
2022-07-30T09:42:01.405Z,19
2022-07-30T09:43:01.157Z,18
2022-07-30T09:44:01.092Z,16
2022-07-30T09:45:01.093Z,16
2022-07-30T09:46:01.092Z,15
2022-07-30T09:47:01.135Z,14
2022-07-30T09:48:01.091Z,15
2022-07-30T09:49:02.149Z,18
2022-07-30T09:50:05.513Z,19
2022-07-30T09:52:06.486Z,20
2022-07-30T09:54:01.096Z,19
2022-07-30T09:57:01.968Z,18
2022-07-30T09:58:01.558Z,17
2022-07-30T09:59:01.095Z,18
2022-07-30T10:00:01.097Z,17
2022-07-30T10:01:01.093Z,16
2022-07-30T10:02:03.896Z,18
2022-07-30T10:03:12.505Z,19
2022-07-30T10:04:01.076Z,16
2022-07-30T10:06:01.161Z,17
2022-07-30T10:08:02.641Z,16
2022-07-30T10:09:01.095Z,19
2022-07-30T10:10:01.099Z,18
2022-07-30T10:14:01.108Z,19
2022-07-30T10:15:01.145Z,19
2022-07-30T10:16:01.081Z,20
2022-07-30T10:18:01.107Z,19
2022-07-30T10:20:03.020Z,16
2022-07-30T10:22:01.456Z,14
2022-07-30T10:25:01.110Z,16
2022-07-30T10:26:01.079Z,15
2022-07-30T10:27:01.324Z,18
2022-07-30T10:28:01.077Z,20
2022-07-30T10:29:01.107Z,21
2022-07-30T10:30:03.388Z,20
2022-07-30T10:31:01.081Z,21
2022-07-30T10:32:01.078Z,20
2022-07-30T10:33:01.472Z,19
2022-07-30T10:34:01.106Z,16
2022-07-30T10:35:01.082Z,17
2022-07-30T10:36:02.477Z,16
2022-07-30T10:38:01.079Z,15
2022-07-30T10:39:01.125Z,18
2022-07-30T10:40:01.082Z,19
2022-07-30T10:41:01.079Z,20
2022-07-30T10:42:01.081Z,21
2022-07-30T10:44:01.080Z,18
2022-07-30T10:45:01.079Z,18
2022-07-30T10:46:01.084Z,16
2022-07-30T10:47:01.240Z,19
2022-07-30T10:49:01.117Z,20
2022-07-30T10:50:01.089Z,19
2022-07-30T10:51:01.271Z,20
2022-07-30T10:52:01.082Z,17
2022-07-30T10:53:01.081Z,16
2022-07-30T10:55:01.082Z,15
2022-07-30T10:56:01.081Z,14
2022-07-30T10:57:01.273Z,13
2022-07-30T10:59:02.799Z,15
2022-07-30T11:00:01.241Z,14
2022-07-30T11:01:01.081Z,15
2022-07-30T11:02:01.301Z,14
2022-07-30T11:03:01.081Z,16
2022-07-30T11:04:01.081Z,15
2022-07-30T11:05:01.094Z,16
2022-07-30T11:06:01.081Z,15
2022-07-30T11:07:01.082Z,17
2022-07-30T11:08:01.083Z,16
2022-07-30T11:09:01.083Z,17
2022-07-30T11:10:05.089Z,18
2022-07-30T11:11:16.309Z,19
2022-07-30T11:14:01.065Z,17
2022-07-30T11:15:06.362Z,15
2022-07-30T11:17:01.257Z,17
2022-07-30T11:18:01.088Z,16
2022-07-30T11:19:19.748Z,17
2022-07-30T11:20:01.063Z,18
2022-07-30T11:21:01.094Z,20
2022-07-30T11:22:01.354Z,19
2022-07-30T11:23:01.149Z,18
2022-07-30T11:24:01.154Z,17
2022-07-30T11:25:01.082Z,18
2022-07-30T11:26:01.084Z,16
2022-07-30T11:27:01.086Z,15
2022-07-30T11:28:01.083Z,17
2022-07-30T11:29:01.086Z,15
2022-07-30T11:30:01.084Z,15
2022-07-30T11:32:05.281Z,16
2022-07-30T11:33:01.085Z,15
2022-07-30T11:34:01.088Z,17
2022-07-30T11:37:01.084Z,15
2022-07-30T11:38:02.030Z,16
2022-07-30T11:39:05.329Z,14
2022-07-30T11:42:01.263Z,15
2022-07-30T11:43:01.084Z,17
2022-07-30T11:44:01.085Z,18
2022-07-30T11:45:04.013Z,19
2022-07-30T11:46:01.088Z,20
2022-07-30T11:48:01.085Z,18
2022-07-30T11:51:03.902Z,17
2022-07-30T11:52:01.287Z,16
2022-07-30T11:53:01.088Z,15
2022-07-30T11:54:01.089Z,18
2022-07-30T11:57:04.519Z,19
2022-07-30T11:59:01.087Z,16
2022-07-30T12:00:01.086Z,16
2022-07-30T12:01:01.103Z,15
2022-07-30T12:04:01.116Z,16
2022-07-30T12:05:01.090Z,15
2022-07-30T12:06:01.097Z,16
2022-07-30T12:07:01.254Z,15
2022-07-30T12:08:01.092Z,17
2022-07-30T12:11:01.091Z,16
2022-07-30T12:13:01.125Z,14
2022-07-30T12:14:01.091Z,13
2022-07-30T12:15:02.063Z,13
2022-07-30T12:17:01.418Z,14
2022-07-30T12:20:01.088Z,16
2022-07-30T12:22:01.090Z,17
2022-07-30T12:24:01.115Z,18
2022-07-30T12:25:01.091Z,16
2022-07-30T12:27:01.380Z,18
2022-07-30T12:28:01.090Z,19
2022-07-30T12:29:01.116Z,20
2022-07-30T12:30:01.090Z,19
2022-07-30T12:31:01.091Z,20
2022-07-30T12:33:01.093Z,19
2022-07-30T12:34:01.270Z,17
2022-07-30T12:35:01.094Z,21
2022-07-30T12:36:01.093Z,19
2022-07-30T12:37:01.224Z,16
2022-07-30T12:40:01.168Z,13
2022-07-30T12:41:01.095Z,15
2022-07-30T12:42:01.095Z,16
2022-07-30T12:43:01.163Z,15
2022-07-30T12:45:01.079Z,17
2022-07-30T12:47:01.412Z,15
2022-07-30T12:48:01.082Z,17
2022-07-30T12:49:02.848Z,19
2022-07-30T12:50:01.517Z,18
2022-07-30T12:51:01.081Z,19
2022-07-30T12:53:01.147Z,20
2022-07-30T12:55:01.110Z,19
2022-07-30T12:58:05.635Z,16
2022-07-30T13:00:01.113Z,15
2022-07-30T13:01:01.086Z,14
2022-07-30T13:03:01.085Z,16
2022-07-30T13:04:01.085Z,18
2022-07-30T13:05:11.189Z,20
2022-07-30T13:06:01.096Z,22
2022-07-30T13:07:01.378Z,23
2022-07-30T13:08:01.087Z,22
2022-07-30T13:09:01.153Z,19
2022-07-30T13:10:01.119Z,18
2022-07-30T13:11:01.151Z,16
2022-07-30T13:12:01.227Z,15
2022-07-30T13:13:01.087Z,16
2022-07-30T13:14:01.089Z,15
2022-07-30T13:15:01.087Z,14
2022-07-30T13:16:01.088Z,16
2022-07-30T13:18:01.087Z,14
2022-07-30T13:19:01.088Z,15
2022-07-30T13:20:01.117Z,14
2022-07-30T13:21:01.089Z,13
2022-07-30T13:23:02.065Z,15
2022-07-30T13:25:01.116Z,16
2022-07-30T13:26:01.089Z,17
2022-07-30T13:28:01.089Z,16
2022-07-30T13:29:01.980Z,15
2022-07-30T13:30:01.088Z,16
2022-07-30T13:31:01.095Z,15
2022-07-30T13:32:01.089Z,16
2022-07-30T13:34:01.095Z,17
2022-07-30T13:35:01.678Z,14
2022-07-30T13:36:01.090Z,15
2022-07-30T13:38:01.089Z,17
2022-07-30T13:39:01.099Z,18
2022-07-30T13:40:01.117Z,19
2022-07-30T13:41:02.803Z,21
2022-07-30T13:42:01.091Z,20
2022-07-30T13:43:01.091Z,19
2022-07-30T13:44:01.092Z,18
2022-07-30T13:45:01.105Z,19
2022-07-30T13:46:01.092Z,16
2022-07-30T13:50:01.093Z,18
2022-07-30T13:51:01.096Z,21
2022-07-30T13:53:02.406Z,20
2022-07-30T13:54:01.094Z,21
2022-07-30T13:55:01.095Z,20
2022-07-30T13:56:01.093Z,19
2022-07-30T13:57:01.202Z,18
2022-07-30T13:58:01.094Z,19
2022-07-30T13:59:01.097Z,18
2022-07-30T14:00:01.096Z,17
2022-07-30T14:02:01.200Z,19
2022-07-30T14:03:01.095Z,20
2022-07-30T14:04:01.100Z,19
2022-07-30T14:07:01.386Z,18
2022-07-30T14:08:01.081Z,15
2022-07-30T14:09:01.079Z,14
2022-07-30T14:12:01.108Z,15
2022-07-30T14:14:01.088Z,16
2022-07-30T14:15:01.113Z,18
2022-07-30T14:16:01.120Z,19
2022-07-30T14:20:01.156Z,16
2022-07-30T14:22:01.110Z,15
2022-07-30T14:25:01.084Z,17
2022-07-30T14:26:01.114Z,18
2022-07-30T14:27:01.443Z,17
2022-07-30T14:28:01.083Z,16
2022-07-30T14:29:01.083Z,15
2022-07-30T14:30:01.083Z,15
2022-07-30T14:31:01.110Z,13
2022-07-30T14:32:01.084Z,15
2022-07-30T14:33:04.424Z,14
2022-07-30T14:34:01.085Z,13
2022-07-30T14:35:01.085Z,14
2022-07-30T14:38:01.115Z,15
2022-07-30T14:39:01.087Z,16
2022-07-30T14:40:01.188Z,18
2022-07-30T14:42:01.116Z,16
2022-07-30T14:43:01.089Z,17
2022-07-30T14:44:01.088Z,18
2022-07-30T14:45:01.089Z,15
2022-07-30T14:46:01.115Z,16
2022-07-30T14:47:01.089Z,18
2022-07-30T14:48:01.091Z,17
2022-07-30T14:49:01.123Z,16
2022-07-30T14:50:01.159Z,18
2022-07-30T14:51:14.637Z,17
2022-07-30T14:52:01.106Z,16
2022-07-30T14:53:01.089Z,17
2022-07-30T14:54:01.089Z,16
2022-07-30T14:55:01.148Z,14
2022-07-30T14:56:01.131Z,16
2022-07-30T14:58:01.096Z,18
2022-07-30T14:59:01.089Z,19
2022-07-30T15:00:01.127Z,19
2022-07-30T15:01:01.145Z,20
2022-07-30T15:02:01.478Z,19
2022-07-30T15:03:01.090Z,18
2022-07-30T15:05:01.091Z,19
2022-07-30T15:06:01.160Z,20
2022-07-30T15:07:01.118Z,18
2022-07-30T15:08:01.092Z,19
2022-07-30T15:10:01.165Z,17
2022-07-30T15:11:02.690Z,15
2022-07-30T15:12:08.202Z,16
2022-07-30T15:13:01.094Z,14
2022-07-30T15:15:01.096Z,14
2022-07-30T15:16:01.159Z,15
2022-07-30T15:18:01.124Z,14
2022-07-30T15:19:01.108Z,13
2022-07-30T15:21:01.179Z,14
2022-07-30T15:22:01.478Z,15
2022-07-30T15:23:01.166Z,17
2022-07-30T15:24:01.097Z,19
2022-07-30T15:26:01.144Z,18
2022-07-30T15:27:01.215Z,17
2022-07-30T15:28:01.132Z,16
2022-07-30T15:30:01.082Z,16
2022-07-30T15:31:01.086Z,17
2022-07-30T15:32:01.729Z,16
2022-07-30T15:34:01.088Z,17
2022-07-30T15:37:01.236Z,18
2022-07-30T15:38:01.080Z,20
2022-07-30T15:39:01.082Z,19
2022-07-30T15:40:01.080Z,18
2022-07-30T15:41:01.081Z,16
2022-07-30T15:42:01.484Z,17
2022-07-30T15:43:01.090Z,16
2022-07-30T15:44:01.083Z,17
2022-07-30T15:45:16.396Z,17
2022-07-30T15:46:01.067Z,18
2022-07-30T15:49:01.129Z,17
2022-07-30T15:50:01.081Z,16
2022-07-30T15:53:01.111Z,15
2022-07-30T15:54:01.084Z,17
2022-07-30T15:57:01.770Z,18
2022-07-30T15:59:01.084Z,16
2022-07-30T16:00:01.088Z,16
2022-07-30T16:01:01.181Z,15
2022-07-30T16:02:01.390Z,14
2022-07-30T16:03:01.084Z,15
2022-07-30T16:04:01.086Z,14
2022-07-30T16:05:01.085Z,15
2022-07-30T16:06:01.085Z,16
2022-07-30T16:08:01.114Z,18
2022-07-30T16:09:01.088Z,19
2022-07-30T16:10:01.088Z,20
2022-07-30T16:12:01.443Z,21
2022-07-30T16:13:01.116Z,18
2022-07-30T16:14:01.088Z,17
2022-07-30T16:15:01.091Z,17
2022-07-30T16:17:01.153Z,18
2022-07-30T16:19:05.480Z,19
2022-07-30T16:21:01.239Z,20
2022-07-30T16:22:01.267Z,18
2022-07-30T16:25:01.090Z,17
2022-07-30T16:26:01.091Z,18
2022-07-30T16:30:01.092Z,19
2022-07-30T16:31:01.090Z,16
2022-07-30T16:32:01.435Z,18
2022-07-30T16:33:01.171Z,17
2022-07-30T16:34:01.091Z,19
2022-07-30T16:36:01.155Z,22
2022-07-30T16:37:03.911Z,23
2022-07-30T16:38:01.090Z,22
2022-07-30T16:39:01.092Z,20
2022-07-30T16:40:01.179Z,21
2022-07-30T16:41:01.094Z,19
2022-07-30T16:42:01.301Z,18
2022-07-30T16:43:01.108Z,19
2022-07-30T16:44:01.091Z,17
2022-07-30T16:45:01.092Z,17
2022-07-30T16:47:01.157Z,16
2022-07-30T16:49:01.143Z,18
2022-07-30T16:50:01.094Z,16
2022-07-30T16:55:01.219Z,17
2022-07-30T16:56:01.091Z,16
2022-07-30T16:57:01.093Z,17
2022-07-30T16:59:01.093Z,19
2022-07-30T17:00:01.184Z,17
2022-07-30T17:02:01.433Z,18
2022-07-30T17:04:01.097Z,17
2022-07-30T17:05:01.103Z,20
2022-07-30T17:08:01.163Z,19
2022-07-30T17:09:01.094Z,18
2022-07-30T17:10:01.096Z,16
2022-07-30T17:11:01.117Z,17
2022-07-30T17:15:01.096Z,18
2022-07-30T17:17:01.148Z,17
2022-07-30T17:19:01.080Z,18
2022-07-30T17:20:01.080Z,19
2022-07-30T17:25:01.081Z,18
2022-07-30T17:27:01.081Z,19
2022-07-30T17:30:01.083Z,17
2022-07-30T17:33:01.086Z,15
2022-07-30T17:35:01.082Z,16
2022-07-30T17:36:01.082Z,14
2022-07-30T17:38:01.098Z,17
2022-07-30T17:40:04.477Z,18
2022-07-30T17:41:01.060Z,19
2022-07-30T17:42:01.092Z,20
2022-07-30T17:43:01.082Z,21
2022-07-30T17:44:01.195Z,22
2022-07-30T17:45:01.083Z,20
2022-07-30T17:46:01.095Z,21
2022-07-30T17:47:01.149Z,20
2022-07-30T17:48:01.085Z,18
2022-07-30T17:50:01.085Z,19
2022-07-30T17:52:01.233Z,17
2022-07-30T17:54:01.085Z,16
2022-07-30T18:00:01.330Z,16
2022-07-30T18:01:01.135Z,17
2022-07-30T18:02:01.485Z,19
2022-07-30T18:03:01.085Z,20
2022-07-30T18:05:01.094Z,21
2022-07-30T18:06:01.088Z,19
2022-07-30T18:07:01.088Z,17
2022-07-30T18:08:01.154Z,16
2022-07-30T18:09:01.088Z,13
2022-07-30T18:10:01.092Z,12
2022-07-30T18:11:01.167Z,15
2022-07-30T18:12:01.529Z,17
2022-07-30T18:14:01.087Z,18
2022-07-30T18:15:01.164Z,19
2022-07-30T18:17:01.218Z,16
2022-07-30T18:18:01.089Z,18
2022-07-30T18:20:01.157Z,19
2022-07-30T18:21:01.162Z,17
2022-07-30T18:22:02.342Z,19
2022-07-30T18:23:01.089Z,17
2022-07-30T18:25:01.093Z,15
2022-07-30T18:28:01.160Z,16
2022-07-30T18:30:01.166Z,18
2022-07-30T18:32:01.412Z,17
2022-07-30T18:36:01.223Z,18
2022-07-30T18:38:01.092Z,20
2022-07-30T18:39:01.091Z,19
2022-07-30T18:40:01.161Z,17
2022-07-30T18:42:01.374Z,16
2022-07-30T18:44:01.093Z,15
2022-07-30T18:45:01.107Z,17
2022-07-30T18:47:01.156Z,18
2022-07-30T18:48:01.092Z,16
2022-07-30T18:49:15.329Z,18
2022-07-30T18:51:01.076Z,19
2022-07-30T18:56:01.220Z,17
2022-07-30T18:58:01.093Z,18
2022-07-30T18:59:01.162Z,17
2022-07-30T19:00:01.095Z,17
2022-07-30T19:03:01.108Z,15
2022-07-30T19:04:01.093Z,16
2022-07-30T19:07:01.222Z,17
2022-07-30T19:08:01.101Z,19
2022-07-30T19:10:01.098Z,20
2022-07-30T19:12:01.378Z,19
2022-07-30T19:13:01.096Z,17
2022-07-30T19:14:01.100Z,16
2022-07-30T19:15:01.162Z,14
2022-07-30T19:17:01.170Z,15
2022-07-30T19:19:01.097Z,16
2022-07-30T19:20:01.098Z,19
2022-07-30T19:21:01.098Z,20
2022-07-30T19:23:01.081Z,18
2022-07-30T19:24:01.082Z,20
2022-07-30T19:26:01.156Z,19
2022-07-30T19:27:01.090Z,18
2022-07-30T19:28:01.085Z,21
2022-07-30T19:30:01.086Z,19
2022-07-30T19:31:01.083Z,18
2022-07-30T19:32:01.419Z,19
2022-07-30T19:33:01.082Z,17
2022-07-30T19:34:01.090Z,18
2022-07-30T19:35:01.094Z,19
2022-07-30T19:36:01.089Z,17
2022-07-30T19:37:01.084Z,16
2022-07-30T19:38:01.081Z,17
2022-07-30T19:39:03.280Z,16
2022-07-30T19:40:05.815Z,15
2022-07-30T19:41:01.081Z,16
2022-07-30T19:43:01.085Z,14
2022-07-30T19:44:01.087Z,12
2022-07-30T19:45:04.151Z,13
2022-07-30T19:47:01.153Z,14
2022-07-30T19:48:01.081Z,17
2022-07-30T19:49:01.098Z,18
2022-07-30T19:50:01.085Z,17
2022-07-30T19:51:01.349Z,18